createdAt,value
2022-08-07T00:00:41.610Z,0.00
2022-08-07T00:01:44.099Z,0.00
2022-08-07T00:02:44.673Z,0.00
2022-08-07T00:03:47.199Z,0.00
2022-08-07T00:04:41.668Z,0.00
2022-08-07T00:05:41.567Z,0.00
2022-08-07T00:06:51.662Z,0.00
2022-08-07T00:07:41.817Z,0.00
2022-08-07T00:08:44.281Z,0.00
2022-08-07T00:09:50.192Z,0.00
2022-08-07T00:10:48.146Z,0.00
2022-08-07T00:11:53.956Z,0.00
2022-08-07T00:12:56.267Z,0.00
2022-08-07T00:13:44.711Z,0.00
2022-08-07T00:14:41.463Z,0.00
2022-08-07T00:15:46.853Z,0.00
2022-08-07T00:16:41.650Z,0.00
2022-08-07T00:17:41.448Z,0.00
2022-08-07T00:18:41.448Z,0.00
2022-08-07T00:20:01.498Z,0.00
2022-08-07T00:20:41.399Z,0.00
2022-08-07T00:21:55.946Z,0.00
2022-08-07T00:22:42.211Z,0.00
2022-08-07T00:23:41.374Z,0.00
2022-08-07T00:24:41.356Z,0.00
2022-08-07T00:25:41.723Z,0.00
2022-08-07T00:26:59.014Z,0.00
2022-08-07T00:27:53.512Z,0.00
2022-08-07T00:28:45.593Z,0.00
2022-08-07T00:29:41.307Z,0.00
2022-08-07T00:30:41.293Z,0.00
2022-08-07T00:31:42.220Z,0.00
2022-08-07T00:32:41.905Z,0.00
2022-08-07T00:33:41.619Z,0.00
2022-08-07T00:34:41.250Z,0.00
2022-08-07T00:35:41.233Z,0.00
2022-08-07T00:36:43.040Z,0.00
2022-08-07T00:37:47.600Z,0.00
2022-08-07T00:38:41.230Z,0.00
2022-08-07T00:39:45.226Z,0.00
2022-08-07T00:40:41.293Z,0.00
2022-08-07T00:41:45.392Z,0.00
2022-08-07T00:42:41.172Z,0.00
2022-08-07T00:44:01.466Z,0.00
2022-08-07T00:44:41.378Z,0.00
2022-08-07T00:45:41.292Z,0.00
2022-08-07T00:46:41.119Z,0.00
2022-08-07T00:48:09.476Z,0.00
2022-08-07T00:48:42.033Z,0.00
2022-08-07T00:50:19.338Z,0.00
2022-08-07T00:50:51.320Z,0.00
2022-08-07T00:51:57.435Z,0.00
2022-08-07T00:52:41.196Z,0.00
2022-08-07T00:53:50.265Z,0.00
2022-08-07T00:54:41.045Z,0.00
2022-08-07T00:56:00.524Z,0.00
2022-08-07T00:56:41.014Z,0.00
2022-08-07T00:57:44.402Z,0.00
2022-08-07T00:58:41.237Z,0.00
2022-08-07T00:59:41.513Z,0.00
2022-08-07T01:00:43.030Z,0.00
2022-08-07T01:01:44.736Z,0.00
2022-08-07T01:02:41.001Z,0.00
2022-08-07T01:03:56.617Z,0.00
2022-08-07T01:04:43.214Z,0.00
2022-08-07T01:05:40.924Z,0.00
2022-08-07T01:06:40.929Z,0.00
2022-08-07T01:07:40.897Z,0.00
2022-08-07T01:08:51.554Z,0.00
2022-08-07T01:10:07.126Z,0.00
2022-08-07T05:02:16.935Z,5.62
2022-08-07T05:03:16.708Z,5.62
2022-08-07T05:04:17.853Z,5.62
2022-08-07T05:05:52.138Z,5.62
2022-08-07T05:06:19.649Z,5.62
2022-08-07T05:07:20.545Z,5.62
2022-08-07T05:08:14.752Z,5.62
2022-08-07T05:09:14.729Z,5.62
2022-08-07T05:10:14.728Z,5.62
2022-08-07T05:11:19.475Z,5.62
2022-08-07T05:12:15.627Z,5.62
2022-08-07T05:14:52.591Z,5.62
2022-08-07T05:15:04.814Z,5.62
2022-08-07T05:15:14.664Z,5.62
2022-08-07T05:16:14.698Z,5.62
2022-08-07T05:17:50.442Z,5.62
2022-08-07T05:18:14.632Z,5.62
2022-08-07T05:19:14.621Z,5.62
2022-08-07T05:20:14.631Z,5.62
2022-08-07T05:21:15.337Z,5.62
2022-08-07T05:22:27.620Z,5.62
2022-08-07T05:23:16.009Z,5.62
2022-08-07T05:24:14.575Z,5.62
2022-08-07T05:25:26.259Z,5.62
2022-08-07T05:26:23.741Z,5.62
2022-08-07T05:28:03.323Z,5.62
2022-08-07T05:28:26.954Z,5.62
2022-08-07T05:29:14.505Z,5.62
2022-08-07T05:30:14.500Z,5.62
2022-08-07T05:31:16.680Z,11.25
2022-08-07T05:32:14.499Z,11.25
2022-08-07T05:33:14.471Z,11.25
2022-08-07T05:34:15.710Z,11.25
2022-08-07T05:35:14.455Z,11.25
2022-08-07T05:36:22.666Z,11.25
2022-08-07T05:37:14.431Z,11.25
2022-08-07T05:39:01.140Z,11.25
2022-08-07T05:40:17.702Z,11.25
2022-08-07T05:40:23.864Z,11.25
2022-08-07T05:41:21.825Z,11.25
2022-08-07T05:42:34.688Z,11.25
2022-08-07T05:43:19.536Z,11.25
2022-08-07T05:44:29.330Z,11.25
2022-08-07T05:45:46.249Z,11.25
2022-08-07T05:46:19.498Z,11.25
2022-08-07T05:47:19.501Z,11.25
2022-08-07T05:48:19.471Z,11.25
2022-08-07T05:49:19.457Z,11.25
2022-08-07T05:50:19.446Z,11.25
2022-08-07T05:51:19.478Z,11.25
2022-08-07T05:52:20.242Z,11.25
2022-08-07T05:54:13.598Z,11.25
2022-08-07T05:54:53.410Z,11.25
2022-08-07T05:55:19.396Z,11.25
2022-08-07T05:56:19.392Z,11.25
2022-08-07T05:57:19.438Z,11.25
2022-08-07T05:58:19.359Z,11.25
2022-08-07T05:59:19.357Z,11.25
2022-08-07T06:00:19.337Z,11.25
2022-08-07T06:01:19.371Z,11.25
2022-08-07T06:02:28.797Z,11.25
2022-08-07T06:03:19.334Z,11.25
2022-08-07T06:04:19.313Z,11.25
2022-08-07T06:05:19.652Z,11.25
2022-08-07T06:06:19.289Z,11.25
2022-08-07T06:07:22.979Z,11.25
2022-08-07T06:08:30.922Z,11.25
2022-08-07T06:09:19.248Z,11.25
2022-08-07T06:10:19.250Z,11.25
2022-08-07T06:11:19.219Z,11.25
2022-08-07T06:12:21.150Z,11.25
2022-08-07T06:13:19.199Z,11.25
2022-08-07T06:14:21.211Z,11.25
2022-08-07T06:15:19.956Z,11.25
2022-08-07T06:16:19.187Z,11.25
2022-08-07T06:17:19.162Z,11.25
2022-08-07T06:18:19.145Z,11.25
2022-08-07T06:19:57.531Z,11.25
2022-08-07T06:20:31.717Z,11.25
2022-08-07T06:22:14.425Z,11.25
2022-08-07T06:22:27.597Z,11.25
2022-08-07T06:23:45.799Z,11.25
2022-08-07T06:24:46.379Z,11.25
2022-08-07T06:25:19.067Z,11.25
2022-08-07T06:26:19.057Z,11.25
2022-08-07T06:27:22.933Z,11.25
2022-08-07T06:28:19.052Z,11.25
2022-08-07T06:29:19.023Z,11.25
2022-08-07T06:30:36.161Z,11.25
2022-08-07T06:31:19.005Z,11.25
2022-08-07T06:32:18.991Z,11.25
2022-08-07T06:33:18.986Z,11.25
2022-08-07T06:34:19.624Z,11.25
2022-08-07T06:35:18.955Z,11.25
2022-08-07T06:36:35.000Z,11.25
2022-08-07T06:37:20.399Z,11.25
2022-08-07T06:38:19.894Z,11.25
2022-08-07T06:40:17.476Z,11.25
2022-08-07T06:40:27.840Z,11.25
2022-08-07T06:41:18.896Z,11.25
2022-08-07T06:42:18.881Z,11.25
2022-08-07T06:43:20.950Z,11.25
2022-08-07T06:44:18.879Z,11.25
2022-08-07T06:45:18.845Z,11.25
2022-08-07T06:46:20.403Z,11.25
2022-08-07T06:47:18.831Z,11.25
2022-08-07T06:48:25.136Z,11.25
2022-08-07T06:49:18.826Z,11.25
2022-08-07T06:50:19.132Z,11.25
2022-08-07T06:51:31.341Z,11.25
2022-08-07T06:52:18.778Z,11.25
2022-08-07T06:54:12.106Z,11.25
2022-08-07T06:55:53.707Z,11.25
2022-08-07T06:56:07.550Z,11.25
2022-08-07T06:56:50.014Z,11.25
2022-08-07T06:57:50.948Z,11.25
2022-08-07T07:00:12.382Z,11.25
2022-08-07T07:00:22.048Z,11.25
2022-08-07T07:00:48.985Z,11.25
2022-08-07T07:01:50.869Z,11.25
2022-08-07T07:02:54.553Z,11.25
2022-08-07T07:03:57.205Z,11.25
2022-08-07T07:04:54.943Z,11.25
2022-08-07T07:06:04.026Z,11.25
2022-08-07T07:07:00.265Z,11.25
2022-08-07T07:07:59.717Z,11.25
2022-08-07T07:08:48.908Z,11.25
2022-08-07T07:09:48.884Z,11.25
2022-08-07T07:10:56.710Z,11.25
2022-08-07T07:12:10.611Z,11.25
2022-08-07T07:12:53.373Z,11.25
2022-08-07T07:13:57.865Z,11.25
2022-08-07T07:14:48.837Z,11.25
2022-08-07T07:15:51.522Z,11.25
2022-08-07T07:16:50.760Z,11.25
2022-08-07T07:17:50.524Z,11.25
2022-08-07T07:18:48.891Z,11.25
2022-08-07T07:19:57.935Z,11.25
2022-08-07T07:20:48.771Z,11.25
2022-08-07T07:22:04.621Z,11.25
2022-08-07T07:24:05.598Z,11.25
2022-08-07T07:24:14.422Z,11.25
2022-08-07T07:24:58.544Z,11.25
2022-08-07T07:26:34.831Z,11.25
2022-08-07T07:26:52.019Z,11.25
2022-08-07T07:27:55.562Z,11.25
2022-08-07T07:29:40.117Z,11.25
2022-08-07T07:30:10.087Z,11.25
2022-08-07T07:30:48.664Z,11.25
2022-08-07T07:31:48.663Z,11.25
2022-08-07T07:32:48.632Z,11.25
2022-08-07T07:33:49.033Z,16.88
2022-08-07T07:34:48.837Z,16.88
2022-08-07T07:36:04.503Z,16.88
2022-08-07T07:36:54.004Z,16.88
2022-08-07T07:37:59.196Z,16.88
2022-08-07T07:38:48.568Z,16.88
2022-08-07T07:39:54.649Z,16.88
2022-08-07T07:40:48.555Z,16.88
2022-08-07T07:41:50.789Z,16.88
2022-08-07T07:42:53.887Z,16.88
2022-08-07T07:44:16.757Z,16.88
2022-08-07T07:44:49.594Z,16.88
2022-08-07T07:46:40.152Z,16.88
2022-08-07T07:47:23.654Z,16.88
2022-08-07T07:47:52.451Z,16.88
2022-08-07T07:48:48.471Z,16.88
2022-08-07T07:50:34.012Z,16.88
2022-08-07T07:50:48.440Z,16.88
2022-08-07T07:51:58.009Z,16.88
2022-08-07T07:52:48.415Z,16.88
2022-08-07T07:53:52.596Z,16.88
2022-08-07T07:54:51.160Z,16.88
2022-08-07T07:55:54.789Z,16.88
2022-08-07T07:56:48.374Z,16.88
2022-08-07T07:57:53.386Z,16.88
2022-08-07T07:58:48.359Z,16.88
2022-08-07T07:59:51.798Z,16.88
2022-08-07T08:00:53.761Z,16.88
2022-08-07T08:02:02.263Z,16.88
2022-08-07T08:03:04.522Z,16.88
2022-08-07T08:04:10.016Z,16.88
2022-08-07T08:04:50.432Z,16.88
2022-08-07T08:05:55.016Z,16.88
2022-08-07T08:06:52.349Z,16.88
2022-08-07T08:08:00.050Z,16.88
2022-08-07T08:08:48.371Z,16.88
2022-08-07T08:09:52.312Z,16.88
2022-08-07T08:10:48.244Z,16.88
2022-08-07T08:11:59.129Z,16.88
2022-08-07T08:12:59.266Z,16.88
2022-08-07T08:13:54.504Z,16.88
2022-08-07T08:14:48.178Z,16.88
2022-08-07T08:15:58.932Z,16.88
2022-08-07T08:16:49.398Z,16.88
2022-08-07T08:18:17.665Z,16.88
2022-08-07T08:18:50.470Z,16.88
2022-08-07T08:20:18.551Z,16.88
2022-08-07T08:20:48.117Z,16.88
2022-08-07T08:21:55.541Z,16.88
2022-08-07T08:22:55.680Z,16.88
2022-08-07T08:23:48.090Z,16.88
2022-08-07T08:24:48.075Z,16.88
2022-08-07T08:25:48.968Z,16.88
2022-08-07T08:26:50.474Z,16.88
2022-08-07T08:27:56.060Z,16.88
2022-08-07T08:28:48.039Z,16.88
2022-08-07T08:29:55.500Z,16.88
2022-08-07T08:30:51.111Z,16.88
2022-08-07T08:32:16.769Z,16.88
2022-08-07T08:32:49.106Z,16.88
2022-08-07T08:33:49.353Z,16.88
2022-08-07T08:34:47.955Z,16.88
2022-08-07T08:35:50.953Z,16.88
2022-08-07T08:36:47.943Z,16.88
2022-08-07T08:38:00.966Z,16.88
2022-08-07T08:38:47.917Z,16.88
2022-08-07T08:39:55.229Z,16.88
2022-08-07T08:40:47.905Z,16.88
2022-08-07T08:41:57.403Z,16.88
2022-08-07T08:42:47.882Z,16.88
2022-08-07T08:43:58.673Z,16.88
2022-08-07T08:44:47.855Z,16.88
2022-08-07T08:45:59.003Z,16.88
2022-08-07T08:46:47.872Z,16.88
2022-08-07T08:47:54.619Z,16.88
2022-08-07T08:48:50.964Z,16.88
2022-08-07T08:50:02.971Z,16.88
2022-08-07T08:50:47.787Z,16.88
2022-08-07T08:52:12.799Z,22.50
2022-08-07T08:52:53.680Z,16.88
2022-08-07T08:53:47.764Z,16.88
2022-08-07T08:54:47.752Z,16.88
2022-08-07T08:55:54.730Z,16.88
2022-08-07T08:56:48.001Z,16.88
2022-08-07T08:57:47.714Z,16.88
2022-08-07T08:58:47.731Z,16.88
2022-08-07T08:59:48.020Z,16.88
2022-08-07T09:00:48.647Z,16.88
2022-08-07T09:01:49.566Z,16.88
2022-08-07T09:02:52.392Z,16.88
2022-08-07T09:03:52.657Z,16.88
2022-08-07T09:04:47.656Z,16.88
2022-08-07T09:05:47.781Z,16.88
2022-08-07T09:06:48.216Z,16.88
2022-08-07T09:07:58.180Z,16.88
2022-08-07T09:08:47.643Z,16.88
2022-08-07T09:09:47.753Z,16.88
2022-08-07T09:10:47.575Z,16.88
2022-08-07T09:11:53.357Z,16.88
2022-08-07T09:12:53.628Z,16.88
2022-08-07T09:13:47.552Z,16.88
2022-08-07T09:14:50.997Z,16.88
2022-08-07T09:16:25.606Z,16.88
2022-08-07T09:16:47.740Z,16.88
2022-08-07T09:17:59.576Z,16.88
2022-08-07T09:18:53.415Z,16.88
2022-08-07T09:19:51.096Z,16.88
2022-08-07T09:20:58.572Z,16.88
2022-08-07T09:22:10.072Z,16.88
2022-08-07T09:24:52.405Z,16.88
2022-08-07T09:25:07.027Z,16.88
2022-08-07T09:25:20.302Z,16.88
2022-08-07T09:26:13.854Z,16.88
2022-08-07T09:27:13.835Z,16.88
2022-08-07T09:30:00.793Z,16.88
2022-08-07T09:30:09.031Z,16.88
2022-08-07T09:30:14.146Z,16.88
2022-08-07T09:31:15.400Z,16.88
2022-08-07T09:32:16.989Z,16.88
2022-08-07T09:33:24.225Z,16.88
2022-08-07T09:34:14.110Z,16.88
2022-08-07T09:36:01.364Z,16.88
2022-08-07T09:36:14.077Z,16.88
2022-08-07T09:37:14.070Z,16.88
2022-08-07T09:38:14.050Z,16.88
2022-08-07T09:39:52.464Z,16.88
2022-08-07T09:40:14.098Z,16.88
2022-08-07T09:41:14.050Z,16.88
2022-08-07T09:42:17.175Z,16.88
2022-08-07T09:43:14.641Z,16.88
2022-08-07T09:44:19.930Z,22.50
2022-08-07T09:47:42.521Z,22.50
2022-08-07T09:48:06.161Z,22.50
2022-08-07T09:48:19.066Z,22.50
2022-08-07T09:50:01.622Z,22.50
2022-08-07T09:50:19.111Z,22.50
2022-08-07T09:51:25.905Z,22.50
2022-08-07T09:52:34.473Z,22.50
2022-08-07T09:53:12.590Z,22.50
2022-08-07T09:54:16.337Z,22.50
2022-08-07T09:55:16.899Z,22.50
2022-08-07T09:56:12.289Z,22.50
2022-08-07T09:57:12.927Z,22.50
2022-08-07T09:58:12.052Z,22.50
2022-08-07T09:59:14.103Z,22.50
2022-08-07T10:00:14.685Z,22.50
2022-08-07T10:01:50.359Z,22.50
2022-08-07T10:02:12.015Z,22.50
2022-08-07T10:04:05.571Z,22.50
2022-08-07T10:04:32.577Z,22.50
2022-08-07T10:05:12.692Z,22.50
2022-08-07T10:06:12.512Z,22.50
2022-08-07T10:07:25.900Z,16.88
2022-08-07T10:08:11.944Z,22.50
2022-08-07T10:09:15.240Z,22.50
2022-08-07T10:10:21.847Z,22.50
2022-08-07T10:11:16.771Z,22.50
2022-08-07T10:12:18.110Z,28.12
2022-08-07T10:13:15.897Z,33.75
2022-08-07T10:14:11.894Z,45.00
2022-08-07T10:15:15.345Z,45.00
2022-08-07T10:16:11.881Z,39.38
2022-08-07T10:17:14.122Z,39.38
2022-08-07T10:18:11.906Z,39.38
2022-08-07T10:19:11.819Z,45.00
2022-08-07T10:20:12.887Z,45.00
2022-08-07T10:21:19.971Z,45.00
2022-08-07T10:22:17.352Z,39.38
2022-08-07T10:23:11.789Z,39.38
2022-08-07T10:24:12.819Z,39.38
2022-08-07T10:25:11.755Z,39.38
2022-08-07T10:26:11.750Z,33.75
2022-08-07T10:27:11.738Z,33.75
2022-08-07T10:28:12.701Z,39.38
2022-08-07T10:29:11.710Z,50.62
2022-08-07T10:30:12.003Z,50.62
2022-08-07T10:31:11.694Z,45.00
2022-08-07T10:32:33.336Z,39.38
2022-08-07T10:33:14.955Z,33.75
2022-08-07T10:34:17.817Z,33.75
2022-08-07T10:35:12.443Z,33.75
2022-08-07T10:36:12.520Z,33.75
2022-08-07T10:37:12.391Z,33.75
2022-08-07T10:38:35.261Z,33.75
2022-08-07T10:39:11.677Z,33.75
2022-08-07T10:40:12.623Z,28.12
2022-08-07T10:41:11.592Z,28.12
2022-08-07T10:42:21.302Z,39.38
2022-08-07T10:43:11.586Z,45.00
2022-08-07T10:44:11.559Z,39.38
2022-08-07T10:45:11.564Z,45.00
2022-08-07T10:46:11.539Z,45.00
2022-08-07T10:47:13.969Z,39.38
2022-08-07T10:48:11.515Z,39.38
2022-08-07T10:49:11.507Z,33.75
2022-08-07T10:50:11.502Z,33.75
2022-08-07T10:51:16.887Z,33.75
2022-08-07T10:52:13.792Z,28.12
2022-08-07T10:53:11.467Z,28.12
2022-08-07T10:54:11.447Z,28.12
2022-08-07T10:55:20.798Z,28.12
2022-08-07T10:56:20.985Z,28.12
2022-08-07T10:57:11.438Z,28.12
2022-08-07T10:58:11.427Z,28.12
2022-08-07T10:59:13.518Z,28.12
2022-08-07T11:00:36.460Z,28.12
2022-08-07T11:01:12.358Z,28.12
2022-08-07T11:02:12.552Z,28.12
2022-08-07T11:03:12.643Z,28.12
2022-08-07T11:04:31.391Z,28.12
2022-08-07T11:05:11.330Z,28.12
2022-08-07T11:06:11.312Z,28.12
2022-08-07T11:07:14.942Z,28.12
2022-08-07T11:08:11.771Z,28.12
2022-08-07T11:09:11.663Z,28.12
2022-08-07T11:10:12.507Z,28.12
2022-08-07T11:11:11.286Z,28.12
2022-08-07T11:12:11.269Z,28.12
2022-08-07T11:13:42.398Z,28.12
2022-08-07T11:15:00.600Z,28.12
2022-08-07T11:15:17.266Z,28.12
2022-08-07T11:16:11.209Z,28.12
2022-08-07T11:17:23.109Z,28.12
2022-08-07T11:18:12.662Z,28.12
2022-08-07T11:19:11.199Z,28.12
2022-08-07T11:20:11.185Z,28.12
2022-08-07T11:21:11.153Z,28.12
2022-08-07T11:22:26.339Z,28.12
2022-08-07T11:23:11.145Z,33.75
2022-08-07T11:24:11.136Z,33.75
2022-08-07T11:25:11.154Z,33.75
2022-08-07T11:26:12.937Z,33.75
2022-08-07T11:27:13.498Z,33.75
2022-08-07T11:28:15.344Z,33.75
2022-08-07T11:29:13.082Z,33.75
2022-08-07T11:30:18.227Z,33.75
2022-08-07T11:31:11.416Z,33.75
2022-08-07T11:32:11.032Z,33.75
2022-08-07T11:33:14.249Z,33.75
2022-08-07T11:34:11.028Z,33.75
2022-08-07T11:35:11.017Z,33.75
2022-08-07T11:36:11.026Z,33.75
2022-08-07T11:37:11.778Z,33.75
2022-08-07T11:38:17.225Z,33.75
2022-08-07T11:39:14.483Z,33.75
2022-08-07T11:40:11.086Z,33.75
2022-08-07T11:41:10.943Z,33.75
2022-08-07T11:42:16.849Z,33.75
2022-08-07T11:43:10.919Z,33.75
2022-08-07T11:44:14.266Z,33.75
2022-08-07T11:45:12.314Z,33.75
2022-08-07T11:46:10.920Z,33.75
2022-08-07T11:47:10.898Z,33.75
2022-08-07T11:48:18.045Z,33.75
2022-08-07T11:49:51.494Z,33.75
2022-08-07T11:50:35.399Z,33.75
2022-08-07T11:51:10.827Z,33.75
2022-08-07T11:52:10.827Z,33.75
2022-08-07T11:53:10.808Z,39.38
2022-08-07T11:54:10.818Z,39.38
2022-08-07T11:55:18.520Z,39.38
2022-08-07T11:56:27.518Z,39.38
2022-08-07T11:57:12.844Z,39.38
2022-08-07T11:58:16.350Z,39.38
2022-08-07T12:00:08.236Z,39.38
2022-08-07T12:00:28.365Z,39.38
2022-08-07T12:01:10.728Z,39.38
2022-08-07T12:02:20.655Z,39.38
2022-08-07T12:03:45.022Z,39.38
2022-08-07T12:04:10.718Z,39.38
2022-08-07T12:05:15.237Z,39.38
2022-08-07T12:06:39.774Z,39.38
2022-08-07T12:07:27.659Z,39.38
2022-08-07T12:08:25.443Z,39.38
2022-08-07T12:09:16.145Z,39.38
2022-08-07T12:10:10.649Z,39.38
2022-08-07T12:11:21.019Z,39.38
2022-08-07T12:12:12.181Z,45.00
2022-08-07T12:13:11.627Z,45.00
2022-08-07T12:14:10.591Z,45.00
2022-08-07T12:15:17.141Z,45.00
2022-08-07T12:16:10.577Z,45.00
2022-08-07T12:17:10.566Z,45.00
2022-08-07T12:18:11.418Z,45.00
2022-08-07T12:19:10.542Z,45.00
2022-08-07T12:20:20.843Z,45.00
2022-08-07T12:21:10.520Z,45.00
2022-08-07T12:22:37.239Z,45.00
2022-08-07T12:23:10.507Z,45.00
2022-08-07T12:24:37.644Z,45.00
2022-08-07T12:25:10.482Z,45.00
2022-08-07T12:26:28.634Z,45.00
2022-08-07T12:27:13.241Z,50.62
2022-08-07T12:28:11.135Z,50.62
2022-08-07T12:29:11.328Z,50.62
2022-08-07T12:30:10.422Z,50.62
2022-08-07T12:31:10.401Z,50.62
2022-08-07T12:32:13.099Z,50.62
2022-08-07T12:33:18.892Z,50.62
2022-08-07T12:34:10.397Z,50.62
2022-08-07T12:35:10.358Z,50.62
2022-08-07T12:36:10.978Z,50.62
2022-08-07T12:37:16.585Z,50.62
2022-08-07T12:38:16.933Z,50.62
2022-08-07T12:39:42.749Z,50.62
2022-08-07T12:40:36.192Z,50.62
2022-08-07T12:41:10.349Z,50.62
2022-08-07T12:42:10.297Z,50.62
2022-08-07T12:43:10.350Z,50.62
2022-08-07T12:44:13.095Z,50.62
2022-08-07T12:45:10.258Z,56.25
2022-08-07T12:46:10.267Z,56.25
2022-08-07T12:47:10.235Z,56.25
2022-08-07T12:48:13.045Z,56.25
2022-08-07T12:49:39.729Z,56.25
2022-08-07T12:50:38.352Z,56.25
2022-08-07T12:51:17.142Z,56.25
2022-08-07T12:52:14.011Z,56.25
2022-08-07T12:53:17.891Z,56.25
2022-08-07T12:54:37.030Z,56.25
2022-08-07T12:55:17.568Z,56.25
2022-08-07T12:56:10.191Z,56.25
2022-08-07T12:57:10.337Z,56.25
2022-08-07T12:58:10.119Z,56.25
2022-08-07T12:59:10.108Z,56.25
2022-08-07T13:00:16.437Z,56.25
2022-08-07T13:01:10.125Z,56.25
2022-08-07T13:02:10.349Z,56.25
2022-08-07T13:03:13.078Z,56.25
2022-08-07T13:04:10.087Z,61.88
2022-08-07T13:05:14.982Z,61.88
2022-08-07T13:06:21.865Z,61.88
2022-08-07T13:07:10.049Z,61.88
2022-08-07T13:08:14.096Z,61.88
2022-08-07T13:09:33.416Z,61.88
2022-08-07T13:10:39.683Z,61.88
2022-08-07T13:11:09.975Z,61.88
2022-08-07T13:12:13.250Z,61.88
2022-08-07T13:13:10.005Z,61.88
2022-08-07T13:14:09.947Z,67.50
2022-08-07T13:15:09.939Z,67.50
2022-08-07T13:16:09.923Z,67.50
2022-08-07T13:17:09.910Z,67.50
2022-08-07T13:18:09.900Z,67.50
2022-08-07T13:19:18.204Z,67.50
2022-08-07T13:20:09.891Z,67.50
2022-08-07T13:21:09.867Z,67.50
2022-08-07T13:22:19.656Z,67.50
2022-08-07T13:24:02.011Z,67.50
2022-08-07T13:24:11.449Z,67.50
2022-08-07T13:25:09.835Z,67.50
2022-08-07T13:26:15.724Z,67.50
2022-08-07T13:27:09.811Z,67.50
2022-08-07T13:28:13.128Z,67.50
2022-08-07T13:29:09.783Z,67.50
2022-08-07T13:30:19.144Z,73.12
2022-08-07T13:31:13.117Z,73.12
2022-08-07T13:32:31.224Z,73.12
2022-08-07T13:34:31.954Z,73.12
2022-08-07T13:34:39.309Z,73.12
2022-08-07T13:35:09.744Z,73.12
2022-08-07T13:36:09.723Z,73.12
2022-08-07T13:37:10.973Z,73.12
2022-08-07T13:38:09.714Z,73.12
2022-08-07T13:39:12.876Z,78.75
2022-08-07T13:40:34.884Z,78.75
2022-08-07T13:41:09.736Z,78.75
2022-08-07T13:42:09.656Z,78.75
2022-08-07T13:43:12.102Z,78.75
2022-08-07T13:44:10.465Z,78.75
2022-08-07T13:45:20.864Z,78.75
2022-08-07T13:46:25.599Z,78.75
2022-08-07T13:47:09.901Z,78.75
2022-08-07T13:48:10.636Z,78.75
2022-08-07T13:50:34.654Z,78.75
2022-08-07T13:51:01.459Z,84.38
2022-08-07T13:51:28.058Z,84.38
2022-08-07T13:52:31.801Z,84.38
2022-08-07T13:53:09.538Z,84.38
2022-08-07T13:54:09.535Z,84.38
2022-08-07T13:55:11.049Z,84.38
2022-08-07T13:56:09.507Z,84.38
2022-08-07T13:57:09.526Z,90.00
2022-08-07T13:58:09.484Z,90.00
2022-08-07T13:59:10.366Z,90.00
2022-08-07T14:00:13.409Z,84.38
2022-08-07T14:01:09.574Z,90.00
2022-08-07T14:02:10.167Z,90.00
2022-08-07T14:03:09.462Z,90.00
2022-08-07T14:04:09.484Z,90.00
2022-08-07T14:05:09.494Z,90.00
2022-08-07T14:06:09.409Z,90.00
2022-08-07T14:07:10.066Z,90.00
2022-08-07T14:08:09.391Z,90.00
2022-08-07T14:09:09.386Z,90.00
2022-08-07T14:10:21.543Z,90.00
2022-08-07T14:11:15.337Z,90.00
2022-08-07T14:12:10.463Z,95.62
2022-08-07T14:13:09.335Z,95.62
2022-08-07T14:14:09.327Z,95.62
2022-08-07T14:15:09.332Z,90.00
2022-08-07T14:16:15.352Z,84.38
2022-08-07T14:17:13.158Z,95.62
2022-08-07T14:18:28.610Z,95.62
2022-08-07T14:19:09.278Z,95.62
2022-08-07T14:20:41.883Z,95.62
2022-08-07T14:21:20.803Z,101.25
2022-08-07T14:22:10.793Z,95.62
2022-08-07T14:23:09.251Z,101.25
2022-08-07T14:24:09.281Z,101.25
2022-08-07T14:25:09.201Z,101.25
2022-08-07T14:26:09.197Z,106.88
2022-08-07T14:28:11.492Z,106.88
2022-08-07T14:28:17.568Z,106.88
2022-08-07T14:30:06.157Z,106.88
2022-08-07T14:30:27.742Z,112.50
2022-08-07T14:31:09.153Z,112.50
2022-08-07T14:32:09.159Z,118.12
2022-08-07T14:33:09.122Z,118.12
2022-08-07T14:34:10.091Z,123.75
2022-08-07T14:35:09.107Z,129.38
2022-08-07T14:36:09.111Z,135.00
2022-08-07T14:37:16.304Z,146.25
2022-08-07T14:38:09.120Z,163.12
2022-08-07T14:39:09.105Z,185.62
2022-08-07T14:40:15.655Z,298.12
2022-08-07T14:41:12.384Z,556.88
2022-08-07T15:52:02.575Z,815.62
2022-08-07T15:52:09.554Z,39.38
2022-08-07T15:53:07.546Z,39.38
2022-08-07T15:54:11.902Z,39.38
2022-08-07T15:55:09.063Z,39.38
2022-08-07T15:56:07.519Z,39.38
2022-08-07T15:57:07.522Z,39.38
2022-08-07T15:58:10.489Z,39.38
2022-08-07T15:59:07.490Z,39.38
2022-08-07T16:00:07.481Z,39.38
2022-08-07T16:01:07.503Z,33.75
2022-08-07T16:02:07.517Z,33.75
2022-08-07T16:03:08.548Z,28.12
2022-08-07T16:04:14.247Z,28.12
2022-08-07T16:05:15.297Z,28.12
2022-08-07T16:06:07.414Z,28.12
2022-08-07T16:08:28.259Z,22.50
2022-08-07T16:08:38.852Z,22.50
2022-08-07T16:09:07.673Z,22.50
2022-08-07T16:10:09.614Z,22.50
2022-08-07T16:11:26.914Z,22.50
2022-08-07T16:12:07.355Z,22.50
2022-08-07T16:13:17.441Z,22.50
2022-08-07T16:14:07.354Z,22.50
2022-08-07T16:15:07.317Z,22.50
2022-08-07T16:16:47.540Z,22.50
2022-08-07T16:17:15.994Z,22.50
2022-08-07T16:18:07.292Z,22.50
2022-08-07T16:19:09.519Z,22.50
2022-08-07T16:20:07.293Z,22.50
2022-08-07T16:22:01.457Z,22.50
2022-08-07T16:22:30.167Z,22.50
2022-08-07T16:23:09.893Z,22.50
2022-08-07T16:24:09.150Z,22.50
2022-08-07T16:25:07.738Z,22.50
2022-08-07T16:26:07.229Z,22.50
2022-08-07T16:27:17.915Z,22.50
2022-08-07T16:28:10.352Z,22.50
2022-08-07T16:30:11.879Z,22.50
2022-08-07T16:30:35.849Z,22.50
2022-08-07T16:31:10.028Z,22.50
2022-08-07T16:32:07.141Z,22.50
2022-08-07T16:34:01.304Z,22.50
2022-08-07T16:34:18.172Z,22.50
2022-08-07T16:35:50.271Z,22.50
2022-08-07T16:36:07.103Z,22.50
2022-08-07T16:38:05.673Z,22.50
2022-08-07T16:38:13.830Z,22.50
2022-08-07T16:39:10.085Z,22.50
2022-08-07T16:40:09.558Z,22.50
2022-08-07T16:41:07.148Z,22.50
2022-08-07T16:42:07.030Z,22.50
2022-08-07T16:43:07.027Z,22.50
2022-08-07T16:44:31.793Z,22.50
2022-08-07T16:45:14.982Z,22.50
2022-08-07T16:46:21.070Z,22.50
2022-08-07T16:47:16.732Z,22.50
2022-08-07T16:48:06.982Z,22.50
2022-08-07T16:50:28.095Z,22.50
2022-08-07T16:50:57.736Z,22.50
2022-08-07T16:51:57.842Z,22.50
2022-08-07T16:52:50.676Z,22.50
2022-08-07T16:53:55.595Z,22.50
2022-08-07T16:54:09.623Z,22.50
2022-08-07T16:55:08.361Z,22.50
2022-08-07T16:56:06.891Z,22.50
2022-08-07T16:57:06.881Z,22.50
2022-08-07T16:58:08.015Z,22.50
2022-08-07T16:59:14.484Z,22.50
2022-08-07T17:00:07.844Z,22.50
2022-08-07T17:01:07.943Z,22.50
2022-08-07T17:02:06.821Z,22.50
2022-08-07T17:03:07.025Z,22.50
2022-08-07T17:04:07.640Z,22.50
2022-08-07T17:05:06.795Z,22.50
2022-08-07T17:06:29.649Z,22.50
2022-08-07T17:07:06.796Z,22.50
2022-08-07T17:08:09.153Z,22.50
2022-08-07T17:09:10.924Z,22.50
2022-08-07T17:10:09.227Z,16.88
2022-08-07T17:11:06.746Z,16.88
2022-08-07T17:12:33.757Z,16.88
2022-08-07T17:13:08.438Z,22.50
2022-08-07T17:14:18.286Z,16.88
2022-08-07T17:15:06.685Z,22.50
2022-08-07T17:16:06.675Z,22.50
2022-08-07T17:17:06.686Z,22.50
2022-08-07T17:18:14.300Z,22.50
2022-08-07T17:19:06.641Z,16.88
2022-08-07T17:20:14.272Z,16.88
2022-08-07T17:21:18.583Z,16.88
2022-08-07T17:22:06.630Z,16.88
2022-08-07T17:23:11.471Z,16.88
2022-08-07T17:24:06.608Z,22.50
2022-08-07T17:25:08.202Z,22.50
2022-08-07T17:26:06.571Z,22.50
2022-08-07T17:27:06.586Z,16.88
2022-08-07T17:28:06.915Z,22.50
2022-08-07T17:29:06.551Z,22.50
2022-08-07T17:30:15.686Z,22.50
2022-08-07T17:31:16.619Z,16.88
2022-08-07T17:32:06.520Z,16.88
2022-08-07T17:33:39.037Z,16.88
2022-08-07T17:34:34.754Z,22.50
2022-08-07T17:35:50.301Z,16.88
2022-08-07T17:36:13.731Z,16.88
2022-08-07T17:37:14.417Z,16.88
2022-08-07T17:38:32.046Z,16.88
2022-08-07T17:39:10.645Z,16.88
2022-08-07T17:40:08.851Z,16.88
2022-08-07T17:42:00.643Z,16.88
2022-08-07T17:42:09.541Z,16.88
2022-08-07T17:43:15.072Z,16.88
2022-08-07T17:44:13.734Z,16.88
2022-08-07T17:45:06.371Z,16.88
2022-08-07T17:46:06.369Z,16.88
2022-08-07T17:47:08.459Z,16.88
2022-08-07T17:48:06.338Z,16.88
2022-08-07T17:49:08.968Z,16.88
2022-08-07T17:50:06.339Z,11.25
2022-08-07T17:51:06.329Z,11.25
2022-08-07T17:52:06.300Z,11.25
2022-08-07T17:53:06.362Z,11.25
2022-08-07T17:54:11.547Z,11.25
2022-08-07T17:55:06.276Z,11.25
2022-08-07T17:56:07.051Z,11.25
2022-08-07T17:57:19.071Z,11.25
2022-08-07T17:58:06.233Z,11.25